sensor_id;sensor_type;location;lat;lon;timestamp;P1;durP1;ratioP1;P2;durP2;ratioP2
58637;SDS011;54976;51.510;7.522;2023-02-04T00:02:53;32.33;;;4.13;;
58637;SDS011;54976;51.510;7.522;2023-02-04T00:05:53;31.10;;;4.55;;
58637;SDS011;54976;51.510;7.522;2023-02-04T00:08:54;27.58;;;4.72;;
58637;SDS011;54976;51.510;7.522;2023-02-04T00:11:54;30.45;;;4.25;;
58637;SDS011;54976;51.510;7.522;2023-02-04T00:14:55;34.95;;;5.35;;
58637;SDS011;54976;51.510;7.522;2023-02-04T00:17:56;32.95;;;4.45;;
58637;SDS011;54976;51.510;7.522;2023-02-04T00:20:56;32.53;;;3.75;;
58637;SDS011;54976;51.510;7.522;2023-02-04T00:23:57;38.78;;;4.78;;
58637;SDS011;54976;51.510;7.522;2023-02-04T00:26:57;25.73;;;4.80;;
58637;SDS011;54976;51.510;7.522;2023-02-04T00:29:58;34.70;;;4.38;;
58637;SDS011;54976;51.510;7.522;2023-02-04T00:32:58;48.45;;;8.02;;
58637;SDS011;54976;51.510;7.522;2023-02-04T00:35:59;42.42;;;4.22;;
58637;SDS011;54976;51.510;7.522;2023-02-04T00:39:00;34.25;;;4.78;;
58637;SDS011;54976;51.510;7.522;2023-02-04T00:42:00;34.63;;;4.45;;
58637;SDS011;54976;51.510;7.522;2023-02-04T00:45:01;46.63;;;7.32;;
58637;SDS011;54976;51.510;7.522;2023-02-04T00:48:01;29.10;;;4.28;;
58637;SDS011;54976;51.510;7.522;2023-02-04T00:51:02;33.72;;;5.40;;
58637;SDS011;54976;51.510;7.522;2023-02-04T00:54:03;32.97;;;4.32;;
58637;SDS011;54976;51.510;7.522;2023-02-04T00:57:03;30.35;;;4.65;;
58637;SDS011;54976;51.510;7.522;2023-02-04T01:00:04;33.83;;;4.10;;
58637;SDS011;54976;51.510;7.522;2023-02-04T01:03:05;53.67;;;5.80;;
58637;SDS011;54976;51.510;7.522;2023-02-04T01:06:06;40.53;;;4.28;;
58637;SDS011;54976;51.510;7.522;2023-02-04T01:09:06;34.20;;;4.45;;
58637;SDS011;54976;51.510;7.522;2023-02-04T01:12:07;33.25;;;4.00;;
58637;SDS011;54976;51.510;7.522;2023-02-04T01:15:08;38.47;;;4.05;;
58637;SDS011;54976;51.510;7.522;2023-02-04T01:18:10;47.85;;;4.68;;
58637;SDS011;54976;51.510;7.522;2023-02-04T01:21:11;35.72;;;4.18;;
58637;SDS011;54976;51.510;7.522;2023-02-04T01:24:12;29.25;;;4.90;;
58637;SDS011;54976;51.510;7.522;2023-02-04T01:27:13;27.83;;;4.03;;
58637;SDS011;54976;51.510;7.522;2023-02-04T01:30:14;38.17;;;5.00;;
58637;SDS011;54976;51.510;7.522;2023-02-04T01:33:15;34.33;;;3.88;;
58637;SDS011;54976;51.510;7.522;2023-02-04T01:36:16;39.38;;;4.25;;
58637;SDS011;54976;51.510;7.522;2023-02-04T01:39:20;26.90;;;3.50;;
58637;SDS011;54976;51.510;7.522;2023-02-04T01:42:21;35.63;;;4.45;;
58637;SDS011;54976;51.510;7.522;2023-02-04T01:45:21;26.25;;;4.00;;
58637;SDS011;54976;51.510;7.522;2023-02-04T01:48:22;38.03;;;4.50;;
58637;SDS011;54976;51.510;7.522;2023-02-04T01:51:24;34.15;;;4.13;;
58637;SDS011;54976;51.510;7.522;2023-02-04T01:54:27;38.78;;;4.07;;
58637;SDS011;54976;51.510;7.522;2023-02-04T01:57:28;39.15;;;5.22;;
58637;SDS011;54976;51.510;7.522;2023-02-04T02:00:30;36.80;;;3.63;;
58637;SDS011;54976;51.510;7.522;2023-02-04T02:03:33;25.13;;;3.93;;
58637;SDS011;54976;51.510;7.522;2023-02-04T02:06:34;35.95;;;3.85;;
58637;SDS011;54976;51.510;7.522;2023-02-04T02:09:37;26.95;;;3.55;;
58637;SDS011;54976;51.510;7.522;2023-02-04T02:12:37;44.45;;;4.50;;
58637;SDS011;54976;51.510;7.522;2023-02-04T02:15:39;41.88;;;4.07;;
58637;SDS011;54976;51.510;7.522;2023-02-04T02:18:40;44.53;;;6.05;;
58637;SDS011;54976;51.510;7.522;2023-02-04T02:22:15;36.17;;;5.30;;
58637;SDS011;54976;51.510;7.522;2023-02-04T02:25:28;34.53;;;5.20;;
58637;SDS011;54976;51.510;7.522;2023-02-04T02:28:29;33.85;;;4.38;;
58637;SDS011;54976;51.510;7.522;2023-02-04T02:31:29;29.30;;;3.63;;
58637;SDS011;54976;51.510;7.522;2023-02-04T02:34:30;32.70;;;4.32;;
58637;SDS011;54976;51.510;7.522;2023-02-04T02:37:32;51.33;;;5.13;;
58637;SDS011;54976;51.510;7.522;2023-02-04T02:40:33;38.92;;;5.30;;
58637;SDS011;54976;51.510;7.522;2023-02-04T02:43:33;44.42;;;4.47;;
58637;SDS011;54976;51.510;7.522;2023-02-04T02:46:34;28.88;;;3.60;;
58637;SDS011;54976;51.510;7.522;2023-02-04T02:49:35;34.33;;;4.55;;
58637;SDS011;54976;51.510;7.522;2023-02-04T02:52:38;28.00;;;5.07;;
58637;SDS011;54976;51.510;7.522;2023-02-04T02:55:39;30.00;;;4.05;;
58637;SDS011;54976;51.510;7.522;2023-02-04T02:58:40;43.10;;;5.38;;
58637;SDS011;54976;51.510;7.522;2023-02-04T03:01:41;35.83;;;4.45;;
58637;SDS011;54976;51.510;7.522;2023-02-04T03:04:43;38.83;;;4.40;;
58637;SDS011;54976;51.510;7.522;2023-02-04T03:07:48;42.95;;;5.60;;
58637;SDS011;54976;51.510;7.522;2023-02-04T03:10:49;27.27;;;3.33;;
58637;SDS011;54976;51.510;7.522;2023-02-04T03:13:50;32.03;;;4.93;;
58637;SDS011;54976;51.510;7.522;2023-02-04T03:16:52;33.42;;;4.10;;
58637;SDS011;54976;51.510;7.522;2023-02-04T03:19:54;31.08;;;4.50;;
58637;SDS011;54976;51.510;7.522;2023-02-04T03:22:55;34.63;;;5.18;;
58637;SDS011;54976;51.510;7.522;2023-02-04T03:25:56;28.55;;;4.65;;
58637;SDS011;54976;51.510;7.522;2023-02-04T03:28:57;31.23;;;4.32;;
58637;SDS011;54976;51.510;7.522;2023-02-04T03:31:58;42.50;;;5.72;;
58637;SDS011;54976;51.510;7.522;2023-02-04T03:34:59;41.10;;;3.83;;
58637;SDS011;54976;51.510;7.522;2023-02-04T03:38:00;45.95;;;4.68;;
58637;SDS011;54976;51.510;7.522;2023-02-04T03:41:00;32.13;;;3.85;;
58637;SDS011;54976;51.510;7.522;2023-02-04T03:44:01;38.10;;;4.65;;
58637;SDS011;54976;51.510;7.522;2023-02-04T03:47:02;26.88;;;3.67;;
58637;SDS011;54976;51.510;7.522;2023-02-04T03:50:03;33.88;;;5.13;;
58637;SDS011;54976;51.510;7.522;2023-02-04T03:53:04;61.72;;;5.75;;
58637;SDS011;54976;51.510;7.522;2023-02-04T03:56:05;36.13;;;4.07;;
58637;SDS011;54976;51.510;7.522;2023-02-04T03:59:05;30.95;;;4.15;;
58637;SDS011;54976;51.510;7.522;2023-02-04T04:02:06;40.03;;;5.07;;
58637;SDS011;54976;51.510;7.522;2023-02-04T04:05:07;43.00;;;5.50;;
58637;SDS011;54976;51.510;7.522;2023-02-04T04:08:08;43.67;;;4.63;;
58637;SDS011;54976;51.510;7.522;2023-02-04T04:11:09;51.33;;;6.43;;
58637;SDS011;54976;51.510;7.522;2023-02-04T04:14:09;40.05;;;4.68;;
58637;SDS011;54976;51.510;7.522;2023-02-04T04:17:10;36.50;;;4.45;;
58637;SDS011;54976;51.510;7.522;2023-02-04T04:20:11;49.55;;;4.80;;
58637;SDS011;54976;51.510;7.522;2023-02-04T04:23:11;42.30;;;4.55;;
58637;SDS011;54976;51.510;7.522;2023-02-04T04:26:12;37.83;;;3.65;;
58637;SDS011;54976;51.510;7.522;2023-02-04T04:29:13;37.25;;;4.43;;
58637;SDS011;54976;51.510;7.522;2023-02-04T04:32:13;37.38;;;4.03;;
58637;SDS011;54976;51.510;7.522;2023-02-04T04:35:14;40.95;;;7.32;;
58637;SDS011;54976;51.510;7.522;2023-02-04T04:38:14;42.63;;;4.13;;
58637;SDS011;54976;51.510;7.522;2023-02-04T04:41:15;39.70;;;4.32;;
58637;SDS011;54976;51.510;7.522;2023-02-04T04:44:16;38.67;;;3.83;;
58637;SDS011;54976;51.510;7.522;2023-02-04T04:47:16;32.08;;;4.47;;
58637;SDS011;54976;51.510;7.522;2023-02-04T04:50:17;62.10;;;10.02;;
58637;SDS011;54976;51.510;7.522;2023-02-04T04:53:17;31.85;;;4.15;;
58637;SDS011;54976;51.510;7.522;2023-02-04T04:56:18;40.25;;;4.38;;
58637;SDS011;54976;51.510;7.522;2023-02-04T04:59:19;44.88;;;4.80;;
58637;SDS011;54976;51.510;7.522;2023-02-04T05:02:19;44.47;;;4.90;;
58637;SDS011;54976;51.510;7.522;2023-02-04T05:05:20;31.55;;;4.90;;
58637;SDS011;54976;51.510;7.522;2023-02-04T05:08:20;42.60;;;5.18;;
58637;SDS011;54976;51.510;7.522;2023-02-04T05:11:21;35.28;;;3.90;;
58637;SDS011;54976;51.510;7.522;2023-02-04T05:14:21;34.10;;;3.75;;
58637;SDS011;54976;51.510;7.522;2023-02-04T05:17:22;35.75;;;4.57;;
58637;SDS011;54976;51.510;7.522;2023-02-04T05:20:23;34.95;;;4.05;;
58637;SDS011;54976;51.510;7.522;2023-02-04T05:23:24;35.72;;;4.38;;
58637;SDS011;54976;51.510;7.522;2023-02-04T05:26:24;39.33;;;4.78;;
58637;SDS011;54976;51.510;7.522;2023-02-04T05:29:26;42.92;;;4.93;;
58637;SDS011;54976;51.510;7.522;2023-02-04T05:32:26;45.13;;;4.60;;
58637;SDS011;54976;51.510;7.522;2023-02-04T05:35:27;45.97;;;4.22;;
58637;SDS011;54976;51.510;7.522;2023-02-04T05:38:27;47.42;;;4.75;;
58637;SDS011;54976;51.510;7.522;2023-02-04T05:41:28;41.78;;;4.57;;
58637;SDS011;54976;51.510;7.522;2023-02-04T05:44:28;48.78;;;4.45;;
58637;SDS011;54976;51.510;7.522;2023-02-04T05:47:29;51.75;;;5.18;;
58637;SDS011;54976;51.510;7.522;2023-02-04T05:50:30;33.17;;;4.40;;
58637;SDS011;54976;51.510;7.522;2023-02-04T05:53:30;36.55;;;3.67;;
58637;SDS011;54976;51.510;7.522;2023-02-04T05:56:31;39.30;;;4.35;;
58637;SDS011;54976;51.510;7.522;2023-02-04T05:59:32;53.72;;;4.90;;
58637;SDS011;54976;51.510;7.522;2023-02-04T06:02:33;41.92;;;4.18;;
58637;SDS011;54976;51.510;7.522;2023-02-04T06:05:33;46.53;;;4.75;;
58637;SDS011;54976;51.510;7.522;2023-02-04T06:08:34;45.42;;;6.13;;
58637;SDS011;54976;51.510;7.522;2023-02-04T06:11:35;43.10;;;5.07;;
58637;SDS011;54976;51.510;7.522;2023-02-04T06:14:35;47.28;;;5.13;;
58637;SDS011;54976;51.510;7.522;2023-02-04T06:17:36;50.30;;;5.30;;
58637;SDS011;54976;51.510;7.522;2023-02-04T06:20:36;40.33;;;4.28;;
58637;SDS011;54976;51.510;7.522;2023-02-04T06:23:37;28.20;;;4.55;;
58637;SDS011;54976;51.510;7.522;2023-02-04T06:26:38;44.13;;;4.40;;
58637;SDS011;54976;51.510;7.522;2023-02-04T06:29:38;34.78;;;4.75;;
58637;SDS011;54976;51.510;7.522;2023-02-04T06:32:39;39.83;;;6.05;;
58637;SDS011;54976;51.510;7.522;2023-02-04T06:35:39;47.28;;;4.80;;
58637;SDS011;54976;51.510;7.522;2023-02-04T06:38:40;36.65;;;3.83;;
58637;SDS011;54976;51.510;7.522;2023-02-04T06:41:40;42.50;;;4.18;;
58637;SDS011;54976;51.510;7.522;2023-02-04T06:44:41;30.75;;;4.88;;
58637;SDS011;54976;51.510;7.522;2023-02-04T06:47:41;29.25;;;3.90;;
58637;SDS011;54976;51.510;7.522;2023-02-04T06:50:42;44.50;;;4.72;;
58637;SDS011;54976;51.510;7.522;2023-02-04T06:53:43;33.65;;;4.32;;
58637;SDS011;54976;51.510;7.522;2023-02-04T06:56:44;49.17;;;5.47;;
58637;SDS011;54976;51.510;7.522;2023-02-04T06:59:45;43.50;;;4.25;;
58637;SDS011;54976;51.510;7.522;2023-02-04T07:02:46;38.08;;;4.40;;
58637;SDS011;54976;51.510;7.522;2023-02-04T07:05:46;37.25;;;5.28;;
58637;SDS011;54976;51.510;7.522;2023-02-04T07:08:47;50.35;;;5.80;;
58637;SDS011;54976;51.510;7.522;2023-02-04T07:11:49;43.35;;;4.65;;
58637;SDS011;54976;51.510;7.522;2023-02-04T07:14:49;42.75;;;4.70;;
58637;SDS011;54976;51.510;7.522;2023-02-04T07:17:50;39.55;;;4.60;;
58637;SDS011;54976;51.510;7.522;2023-02-04T07:20:51;40.45;;;5.53;;
58637;SDS011;54976;51.510;7.522;2023-02-04T07:23:51;43.13;;;5.40;;
58637;SDS011;54976;51.510;7.522;2023-02-04T07:26:52;42.25;;;5.75;;
58637;SDS011;54976;51.510;7.522;2023-02-04T07:29:53;62.78;;;6.32;;
58637;SDS011;54976;51.510;7.522;2023-02-04T07:32:53;36.78;;;5.15;;
58637;SDS011;54976;51.510;7.522;2023-02-04T07:35:54;45.75;;;5.78;;
58637;SDS011;54976;51.510;7.522;2023-02-04T07:38:55;46.25;;;5.07;;
58637;SDS011;54976;51.510;7.522;2023-02-04T07:41:55;29.45;;;4.07;;
58637;SDS011;54976;51.510;7.522;2023-02-04T07:44:56;31.60;;;4.03;;
58637;SDS011;54976;51.510;7.522;2023-02-04T07:47:56;37.83;;;4.50;;
58637;SDS011;54976;51.510;7.522;2023-02-04T07:50:57;46.03;;;5.05;;
58637;SDS011;54976;51.510;7.522;2023-02-04T07:53:57;50.95;;;5.35;;
58637;SDS011;54976;51.510;7.522;2023-02-04T07:56:58;39.78;;;5.00;;
58637;SDS011;54976;51.510;7.522;2023-02-04T07:59:58;42.70;;;4.70;;
58637;SDS011;54976;51.510;7.522;2023-02-04T08:02:59;42.75;;;4.60;;
58637;SDS011;54976;51.510;7.522;2023-02-04T08:06:00;42.35;;;5.10;;
58637;SDS011;54976;51.510;7.522;2023-02-04T08:09:01;49.60;;;4.78;;
58637;SDS011;54976;51.510;7.522;2023-02-04T08:12:01;47.55;;;4.95;;
58637;SDS011;54976;51.510;7.522;2023-02-04T08:15:02;46.30;;;7.32;;
58637;SDS011;54976;51.510;7.522;2023-02-04T08:18:03;51.47;;;5.55;;
58637;SDS011;54976;51.510;7.522;2023-02-04T08:21:04;39.83;;;4.80;;
58637;SDS011;54976;51.510;7.522;2023-02-04T08:24:05;35.75;;;4.93;;
58637;SDS011;54976;51.510;7.522;2023-02-04T08:27:05;44.42;;;5.03;;
58637;SDS011;54976;51.510;7.522;2023-02-04T08:30:06;45.60;;;5.15;;
58637;SDS011;54976;51.510;7.522;2023-02-04T08:33:07;42.35;;;5.10;;
58637;SDS011;54976;51.510;7.522;2023-02-04T08:36:08;44.90;;;5.65;;
58637;SDS011;54976;51.510;7.522;2023-02-04T08:39:09;33.83;;;4.63;;
58637;SDS011;54976;51.510;7.522;2023-02-04T08:42:10;40.05;;;5.57;;
58637;SDS011;54976;51.510;7.522;2023-02-04T08:45:11;54.47;;;6.95;;
58637;SDS011;54976;51.510;7.522;2023-02-04T08:48:11;54.70;;;5.65;;
58637;SDS011;54976;51.510;7.522;2023-02-04T08:51:12;42.85;;;5.28;;
58637;SDS011;54976;51.510;7.522;2023-02-04T08:54:13;54.22;;;6.40;;
58637;SDS011;54976;51.510;7.522;2023-02-04T08:57:13;37.72;;;4.60;;
58637;SDS011;54976;51.510;7.522;2023-02-04T09:00:14;34.45;;;4.03;;
58637;SDS011;54976;51.510;7.522;2023-02-04T09:03:15;40.08;;;5.68;;
58637;SDS011;54976;51.510;7.522;2023-02-04T09:06:15;41.83;;;4.97;;
58637;SDS011;54976;51.510;7.522;2023-02-04T09:09:16;51.17;;;5.95;;
58637;SDS011;54976;51.510;7.522;2023-02-04T09:12:17;35.95;;;4.85;;
58637;SDS011;54976;51.510;7.522;2023-02-04T09:15:17;37.08;;;4.88;;
58637;SDS011;54976;51.510;7.522;2023-02-04T09:18:18;38.95;;;4.95;;
58637;SDS011;54976;51.510;7.522;2023-02-04T09:21:20;49.55;;;5.95;;
58637;SDS011;54976;51.510;7.522;2023-02-04T09:24:21;36.88;;;7.38;;
58637;SDS011;54976;51.510;7.522;2023-02-04T09:27:22;40.53;;;7.05;;
58637;SDS011;54976;51.510;7.522;2023-02-04T09:30:23;42.78;;;6.13;;
58637;SDS011;54976;51.510;7.522;2023-02-04T09:33:23;45.17;;;7.60;;
58637;SDS011;54976;51.510;7.522;2023-02-04T09:36:24;48.80;;;7.60;;
58637;SDS011;54976;51.510;7.522;2023-02-04T09:39:28;50.20;;;6.80;;
58637;SDS011;54976;51.510;7.522;2023-02-04T09:42:28;44.95;;;6.70;;
58637;SDS011;54976;51.510;7.522;2023-02-04T09:45:31;35.53;;;6.35;;
58637;SDS011;54976;51.510;7.522;2023-02-04T09:48:33;36.70;;;6.60;;
58637;SDS011;54976;51.510;7.522;2023-02-04T09:51:34;32.90;;;5.82;;
58637;SDS011;54976;51.510;7.522;2023-02-04T09:54:35;45.22;;;8.02;;
58637;SDS011;54976;51.510;7.522;2023-02-04T09:57:37;40.35;;;7.82;;
58637;SDS011;54976;51.510;7.522;2023-02-04T10:00:37;40.47;;;6.97;;
58637;SDS011;54976;51.510;7.522;2023-02-04T10:03:38;41.25;;;7.13;;
58637;SDS011;54976;51.510;7.522;2023-02-04T10:06:45;45.10;;;7.30;;
58637;SDS011;54976;51.510;7.522;2023-02-04T10:09:46;42.00;;;6.90;;
58637;SDS011;54976;51.510;7.522;2023-02-04T10:12:48;41.92;;;7.68;;
58637;SDS011;54976;51.510;7.522;2023-02-04T10:15:51;31.42;;;7.10;;
58637;SDS011;54976;51.510;7.522;2023-02-04T10:18:52;35.25;;;6.63;;
58637;SDS011;54976;51.510;7.522;2023-02-04T10:21:53;42.63;;;6.80;;
58637;SDS011;54976;51.510;7.522;2023-02-04T10:24:54;41.10;;;6.57;;
58637;SDS011;54976;51.510;7.522;2023-02-04T10:27:58;42.90;;;7.13;;
58637;SDS011;54976;51.510;7.522;2023-02-04T10:30:59;44.50;;;7.13;;
58637;SDS011;54976;51.510;7.522;2023-02-04T10:37:18;43.55;;;6.90;;
58637;SDS011;54976;51.510;7.522;2023-02-04T10:40:31;41.97;;;6.90;;
58637;SDS011;54976;51.510;7.522;2023-02-04T10:43:33;49.63;;;7.68;;
58637;SDS011;54976;51.510;7.522;2023-02-04T10:46:33;38.00;;;6.53;;
58637;SDS011;54976;51.510;7.522;2023-02-04T10:49:34;44.42;;;6.53;;
58637;SDS011;54976;51.510;7.522;2023-02-04T10:52:39;38.60;;;8.20;;
58637;SDS011;54976;51.510;7.522;2023-02-04T10:55:42;47.50;;;8.43;;
58637;SDS011;54976;51.510;7.522;2023-02-04T10:58:44;40.72;;;7.22;;
58637;SDS011;54976;51.510;7.522;2023-02-04T11:01:45;47.92;;;7.47;;
58637;SDS011;54976;51.510;7.522;2023-02-04T11:04:46;47.85;;;8.48;;
58637;SDS011;54976;51.510;7.522;2023-02-04T11:07:47;60.97;;;8.90;;
58637;SDS011;54976;51.510;7.522;2023-02-04T11:10:50;42.88;;;9.50;;
58637;SDS011;54976;51.510;7.522;2023-02-04T11:16:55;51.22;;;9.35;;
58637;SDS011;54976;51.510;7.522;2023-02-04T11:20:12;48.63;;;8.48;;
58637;SDS011;54976;51.510;7.522;2023-02-04T11:26:32;42.80;;;9.65;;
58637;SDS011;54976;51.510;7.522;2023-02-04T11:29:35;54.83;;;12.20;;
58637;SDS011;54976;51.510;7.522;2023-02-04T11:32:37;54.50;;;15.73;;
58637;SDS011;54976;51.510;7.522;2023-02-04T11:35:38;50.55;;;15.98;;
58637;SDS011;54976;51.510;7.522;2023-02-04T11:38:39;50.42;;;14.43;;
58637;SDS011;54976;51.510;7.522;2023-02-04T11:41:47;51.50;;;14.75;;
58637;SDS011;54976;51.510;7.522;2023-02-04T11:44:48;58.90;;;16.20;;
58637;SDS011;54976;51.510;7.522;2023-02-04T11:47:51;64.30;;;18.05;;
58637;SDS011;54976;51.510;7.522;2023-02-04T11:50:55;52.67;;;15.35;;
58637;SDS011;54976;51.510;7.522;2023-02-04T11:53:57;48.25;;;15.40;;
58637;SDS011;54976;51.510;7.522;2023-02-04T11:56:58;56.63;;;15.98;;
58637;SDS011;54976;51.510;7.522;2023-02-04T12:00:00;58.45;;;16.65;;
58637;SDS011;54976;51.510;7.522;2023-02-04T12:03:02;51.05;;;16.73;;
58637;SDS011;54976;51.510;7.522;2023-02-04T12:06:19;53.35;;;15.77;;
58637;SDS011;54976;51.510;7.522;2023-02-04T12:09:22;58.10;;;17.30;;
58637;SDS011;54976;51.510;7.522;2023-02-04T12:12:26;62.47;;;19.03;;
58637;SDS011;54976;51.510;7.522;2023-02-04T12:15:32;52.30;;;16.13;;
58637;SDS011;54976;51.510;7.522;2023-02-04T12:18:34;56.25;;;16.75;;
58637;SDS011;54976;51.510;7.522;2023-02-04T12:21:35;58.25;;;19.80;;
58637;SDS011;54976;51.510;7.522;2023-02-04T12:24:35;54.30;;;20.10;;
58637;SDS011;54976;51.510;7.522;2023-02-04T12:27:36;62.85;;;20.92;;
58637;SDS011;54976;51.510;7.522;2023-02-04T12:30:37;58.80;;;18.48;;
58637;SDS011;54976;51.510;7.522;2023-02-04T12:33:37;60.55;;;19.95;;
58637;SDS011;54976;51.510;7.522;2023-02-04T12:36:38;38.47;;;10.63;;
58637;SDS011;54976;51.510;7.522;2023-02-04T12:39:38;38.85;;;9.90;;
58637;SDS011;54976;51.510;7.522;2023-02-04T12:42:39;46.40;;;9.82;;
58637;SDS011;54976;51.510;7.522;2023-02-04T12:45:39;35.80;;;9.30;;
58637;SDS011;54976;51.510;7.522;2023-02-04T12:48:44;28.38;;;7.47;;
58637;SDS011;54976;51.510;7.522;2023-02-04T12:51:45;40.67;;;8.25;;
58637;SDS011;54976;51.510;7.522;2023-02-04T12:54:45;31.00;;;5.93;;
58637;SDS011;54976;51.510;7.522;2023-02-04T12:57:46;28.00;;;5.90;;
58637;SDS011;54976;51.510;7.522;2023-02-04T13:00:46;44.72;;;7.13;;
58637;SDS011;54976;51.510;7.522;2023-02-04T13:03:47;41.38;;;9.23;;
58637;SDS011;54976;51.510;7.522;2023-02-04T13:06:48;49.88;;;9.68;;
58637;SDS011;54976;51.510;7.522;2023-02-04T13:09:48;40.33;;;6.38;;
58637;SDS011;54976;51.510;7.522;2023-02-04T13:12:49;48.28;;;11.32;;
58637;SDS011;54976;51.510;7.522;2023-02-04T13:15:50;57.85;;;13.18;;
58637;SDS011;54976;51.510;7.522;2023-02-04T13:18:51;46.20;;;12.77;;
58637;SDS011;54976;51.510;7.522;2023-02-04T13:21:51;45.75;;;12.40;;
58637;SDS011;54976;51.510;7.522;2023-02-04T13:24:52;48.47;;;12.02;;
58637;SDS011;54976;51.510;7.522;2023-02-04T13:27:53;43.90;;;11.43;;
58637;SDS011;54976;51.510;7.522;2023-02-04T13:30:53;44.72;;;11.48;;
58637;SDS011;54976;51.510;7.522;2023-02-04T13:33:54;42.30;;;10.48;;
58637;SDS011;54976;51.510;7.522;2023-02-04T13:36:54;37.60;;;10.57;;
58637;SDS011;54976;51.510;7.522;2023-02-04T13:39:55;39.63;;;9.20;;
58637;SDS011;54976;51.510;7.522;2023-02-04T13:42:56;46.45;;;8.65;;
58637;SDS011;54976;51.510;7.522;2023-02-04T13:45:56;31.20;;;7.28;;
58637;SDS011;54976;51.510;7.522;2023-02-04T13:48:57;33.47;;;7.57;;
58637;SDS011;54976;51.510;7.522;2023-02-04T13:51:57;33.10;;;7.15;;
58637;SDS011;54976;51.510;7.522;2023-02-04T13:54:58;37.55;;;7.75;;
58637;SDS011;54976;51.510;7.522;2023-02-04T13:57:59;36.70;;;6.85;;
58637;SDS011;54976;51.510;7.522;2023-02-04T14:01:00;27.83;;;4.97;;
58637;SDS011;54976;51.510;7.522;2023-02-04T14:04:01;26.27;;;5.90;;
58637;SDS011;54976;51.510;7.522;2023-02-04T14:07:01;29.98;;;6.45;;
58637;SDS011;54976;51.510;7.522;2023-02-04T14:10:02;36.40;;;7.10;;
58637;SDS011;54976;51.510;7.522;2023-02-04T14:13:03;39.55;;;6.80;;
58637;SDS011;54976;51.510;7.522;2023-02-04T14:16:04;35.70;;;6.43;;
58637;SDS011;54976;51.510;7.522;2023-02-04T14:19:05;44.28;;;6.65;;
58637;SDS011;54976;51.510;7.522;2023-02-04T14:22:06;34.58;;;5.97;;
58637;SDS011;54976;51.510;7.522;2023-02-04T14:25:06;40.03;;;6.00;;
58637;SDS011;54976;51.510;7.522;2023-02-04T14:28:09;29.50;;;6.25;;
58637;SDS011;54976;51.510;7.522;2023-02-04T14:31:09;31.80;;;6.55;;
58637;SDS011;54976;51.510;7.522;2023-02-04T14:34:10;34.53;;;5.88;;
58637;SDS011;54976;51.510;7.522;2023-02-04T14:37:10;33.00;;;5.50;;
58637;SDS011;54976;51.510;7.522;2023-02-04T14:40:11;29.95;;;7.18;;
58637;SDS011;54976;51.510;7.522;2023-02-04T14:43:13;28.77;;;4.80;;
58637;SDS011;54976;51.510;7.522;2023-02-04T14:46:14;37.70;;;6.10;;
58637;SDS011;54976;51.510;7.522;2023-02-04T14:49:15;46.30;;;6.63;;
58637;SDS011;54976;51.510;7.522;2023-02-04T14:52:16;36.63;;;5.50;;
58637;SDS011;54976;51.510;7.522;2023-02-04T14:55:17;33.67;;;5.35;;
58637;SDS011;54976;51.510;7.522;2023-02-04T14:58:17;35.58;;;6.32;;
58637;SDS011;54976;51.510;7.522;2023-02-04T15:01:18;32.78;;;5.75;;
58637;SDS011;54976;51.510;7.522;2023-02-04T15:04:19;35.17;;;6.75;;
58637;SDS011;54976;51.510;7.522;2023-02-04T15:07:19;30.00;;;5.53;;
58637;SDS011;54976;51.510;7.522;2023-02-04T15:10:21;33.60;;;5.93;;
58637;SDS011;54976;51.510;7.522;2023-02-04T15:13:23;33.60;;;6.13;;
58637;SDS011;54976;51.510;7.522;2023-02-04T15:16:24;24.98;;;4.57;;
58637;SDS011;54976;51.510;7.522;2023-02-04T15:19:24;33.92;;;5.85;;
58637;SDS011;54976;51.510;7.522;2023-02-04T15:22:25;28.48;;;5.35;;
58637;SDS011;54976;51.510;7.522;2023-02-04T15:25:25;36.13;;;5.72;;
58637;SDS011;54976;51.510;7.522;2023-02-04T15:28:26;65.72;;;22.10;;
58637;SDS011;54976;51.510;7.522;2023-02-04T15:31:28;33.67;;;6.75;;
58637;SDS011;54976;51.510;7.522;2023-02-04T15:34:29;32.70;;;5.70;;
58637;SDS011;54976;51.510;7.522;2023-02-04T15:37:30;40.47;;;7.80;;
58637;SDS011;54976;51.510;7.522;2023-02-04T15:40:31;38.20;;;6.32;;
58637;SDS011;54976;51.510;7.522;2023-02-04T15:43:32;34.75;;;6.28;;
58637;SDS011;54976;51.510;7.522;2023-02-04T15:46:32;33.78;;;7.28;;
58637;SDS011;54976;51.510;7.522;2023-02-04T15:49:33;35.70;;;5.70;;
58637;SDS011;54976;51.510;7.522;2023-02-04T15:52:34;28.38;;;5.43;;
58637;SDS011;54976;51.510;7.522;2023-02-04T15:55:35;30.02;;;4.88;;
58637;SDS011;54976;51.510;7.522;2023-02-04T15:58:35;35.35;;;5.70;;
58637;SDS011;54976;51.510;7.522;2023-02-04T16:01:37;30.10;;;4.80;;
58637;SDS011;54976;51.510;7.522;2023-02-04T16:04:37;30.40;;;4.22;;
58637;SDS011;54976;51.510;7.522;2023-02-04T16:07:39;37.10;;;5.13;;
58637;SDS011;54976;51.510;7.522;2023-02-04T16:10:40;33.50;;;5.30;;
58637;SDS011;54976;51.510;7.522;2023-02-04T16:13:40;31.40;;;5.32;;
58637;SDS011;54976;51.510;7.522;2023-02-04T16:16:41;26.50;;;5.13;;
58637;SDS011;54976;51.510;7.522;2023-02-04T16:19:41;29.42;;;6.75;;
58637;SDS011;54976;51.510;7.522;2023-02-04T16:22:42;39.15;;;10.43;;
58637;SDS011;54976;51.510;7.522;2023-02-04T16:25:43;32.60;;;8.00;;
58637;SDS011;54976;51.510;7.522;2023-02-04T16:28:43;48.17;;;12.98;;
58637;SDS011;54976;51.510;7.522;2023-02-04T16:31:46;27.35;;;5.43;;
58637;SDS011;54976;51.510;7.522;2023-02-04T16:34:46;29.83;;;5.32;;
58637;SDS011;54976;51.510;7.522;2023-02-04T16:37:47;30.27;;;6.07;;
58637;SDS011;54976;51.510;7.522;2023-02-04T16:40:48;34.25;;;6.55;;
58637;SDS011;54976;51.510;7.522;2023-02-04T16:43:48;46.38;;;15.23;;
58637;SDS011;54976;51.510;7.522;2023-02-04T16:46:50;61.08;;;22.85;;
58637;SDS011;54976;51.510;7.522;2023-02-04T16:49:50;46.63;;;10.55;;
58637;SDS011;54976;51.510;7.522;2023-02-04T16:52:51;31.83;;;6.78;;
58637;SDS011;54976;51.510;7.522;2023-02-04T16:55:51;30.58;;;5.68;;
58637;SDS011;54976;51.510;7.522;2023-02-04T16:58:52;34.38;;;5.78;;
58637;SDS011;54976;51.510;7.522;2023-02-04T17:01:53;30.58;;;6.95;;
58637;SDS011;54976;51.510;7.522;2023-02-04T17:04:56;33.05;;;6.18;;
58637;SDS011;54976;51.510;7.522;2023-02-04T17:07:57;24.92;;;5.97;;
58637;SDS011;54976;51.510;7.522;2023-02-04T17:10:58;35.78;;;6.47;;
58637;SDS011;54976;51.510;7.522;2023-02-04T17:14:17;26.52;;;5.07;;
58637;SDS011;54976;51.510;7.522;2023-02-04T17:17:20;30.67;;;6.15;;
58637;SDS011;54976;51.510;7.522;2023-02-04T17:20:20;25.45;;;6.10;;
58637;SDS011;54976;51.510;7.522;2023-02-04T17:23:21;36.08;;;7.25;;
58637;SDS011;54976;51.510;7.522;2023-02-04T17:26:21;27.77;;;5.22;;
58637;SDS011;54976;51.510;7.522;2023-02-04T17:29:22;23.33;;;5.38;;
58637;SDS011;54976;51.510;7.522;2023-02-04T17:32:23;31.00;;;6.00;;
58637;SDS011;54976;51.510;7.522;2023-02-04T17:35:24;33.63;;;5.07;;
58637;SDS011;54976;51.510;7.522;2023-02-04T17:38:25;32.45;;;5.55;;
58637;SDS011;54976;51.510;7.522;2023-02-04T17:41:25;23.55;;;5.40;;
58637;SDS011;54976;51.510;7.522;2023-02-04T17:44:26;28.42;;;7.25;;
58637;SDS011;54976;51.510;7.522;2023-02-04T17:47:27;38.95;;;7.85;;
58637;SDS011;54976;51.510;7.522;2023-02-04T17:50:27;47.22;;;17.88;;
58637;SDS011;54976;51.510;7.522;2023-02-04T17:53:28;41.97;;;10.43;;
58637;SDS011;54976;51.510;7.522;2023-02-04T17:56:29;27.33;;;7.25;;
58637;SDS011;54976;51.510;7.522;2023-02-04T17:59:29;22.63;;;5.50;;
58637;SDS011;54976;51.510;7.522;2023-02-04T18:02:30;21.27;;;5.25;;
58637;SDS011;54976;51.510;7.522;2023-02-04T18:05:31;22.60;;;5.50;;